Time;durP1;ratioP1;P1;durP2;ratioP2;P2;SDS_P1;SDS_P2;PMS_P1;PMS_P2;Temp;Humidity;BMP_temperature;BMP_pressure;BME280_temperature;BME280_humidity;BME280_pressure;Samples;Min_cycle;Max_cycle;Signal;HPM_P1;HPM_P2
2021/12/07 00:01:33;;;;;;;31.92;17.02;;;;;;;-2.14;87.37;99159.84;4950424;28;20046;-82
2021/12/07 00:03:59;;;;;;;35.78;17.52;;;;;;;-2.12;87.44;99152.25;4962142;28;20045;-83
2021/12/07 00:06:25;;;;;;;29.77;16.27;;;;;;;-2.12;87.19;99145.50;4969273;28;20038;-82
2021/12/07 00:08:54;;;;;;;;;;;;;;;-2.08;87.02;99146.50;4942135;28;20038;-81
2021/12/07 00:11:24;;;;;;;34.05;15.88;;;;;;;-2.06;87.14;99147.44;4974247;28;19928;-81
2021/12/07 00:13:50;;;;;;;29.05;14.73;;;;;;;-2.00;87.00;99154.41;4925287;28;20211;-81
2021/12/07 00:16:18;;;;;;;30.35;15.63;;;;;;;-2.05;87.41;99132.22;4943540;28;21174;-81
2021/12/07 00:18:46;;;;;;;27.88;14.02;;;;;;;-2.02;87.17;99136.53;4944756;28;20050;-81
2021/12/07 00:21:11;;;;;;;36.50;17.27;;;;;;;-2.06;87.00;99124.56;4965957;28;20505;-81
2021/12/07 00:23:37;;;;;;;31.40;16.25;;;;;;;-2.11;87.14;99119.31;4941689;28;20055;-81
2021/12/07 00:26:03;;;;;;;32.17;14.45;;;;;;;-2.09;87.41;99117.66;4970312;28;20050;-82
2021/12/07 00:28:29;;;;;;;30.13;14.48;;;;;;;-2.11;87.48;99114.22;4960804;28;20120;-81
2021/12/07 00:30:57;;;;;;;29.10;14.85;;;;;;;-2.08;88.34;99109.22;4944628;28;20026;-81
2021/12/07 00:35:52;;;;;;;29.42;14.13;;;;;;;-2.01;88.03;99100.19;4961647;28;20501;-82
2021/12/07 00:38:18;;;;;;;;;;;;;;;-2.02;87.98;99107.72;4945244;28;20038;-83
2021/12/07 00:40:44;;;;;;;31.67;15.45;;;;;;;-2.05;88.36;99099.19;4976991;28;20442;-82
2021/12/07 00:43:10;;;;;;;25.70;13.40;;;;;;;-2.02;88.69;99097.56;4957570;28;20046;-82
2021/12/07 00:45:36;;;;;;;32.92;15.88;;;;;;;-1.98;88.51;99084.16;4944826;28;20070;-81
2021/12/07 00:48:04;;;;;;;29.75;14.27;;;;;;;-2.04;88.31;99092.44;4969656;28;20097;-83
2021/12/07 00:50:29;;;;;;;29.55;15.23;;;;;;;-2.00;87.76;99093.41;4961062;28;20117;-81
2021/12/07 00:52:55;;;;;;;28.40;14.18;;;;;;;-1.94;88.41;99094.50;4970075;28;20100;-81
2021/12/07 00:55:26;;;;;;;27.13;15.32;;;;;;;-1.93;88.76;99075.00;4944545;28;20486;-81
2021/12/07 00:57:54;;;;;;;25.90;12.68;;;;;;;-1.88;88.56;99076.94;4944770;28;20114;-81
2021/12/07 01:00:20;;;;;;;23.90;12.18;;;;;;;-1.89;88.14;99074.31;4957883;28;20034;-81
2021/12/07 01:02:46;;;;;;;25.08;11.85;;;;;;;-1.88;88.17;99063.31;4944865;28;20049;-81
2021/12/07 01:05:27;;;;;;;24.80;13.23;;;;;;;-1.94;88.00;99066.53;4944337;28;20042;-82
2021/12/07 01:08:10;;;;;;;20.05;10.52;;;;;;;-1.93;88.48;99060.63;4957553;28;20046;-81
2021/12/07 01:27:04;;;;;;;20.85;9.50;;;;;;;-1.82;88.93;99022.88;4977891;28;20041;-83
2021/12/07 01:29:29;;;;;;;19.33;8.98;;;;;;;-1.75;89.29;99031.59;4978056;28;20030;-83
2021/12/07 01:34:58;;;;;;;18.17;8.30;;;;;;;-1.74;88.80;99021.47;4948580;28;20034;-83
2021/12/07 01:40:29;;;;;;;17.00;7.68;;;;;;;-1.67;89.34;99028.50;4964910;28;20046;-82
2021/12/07 01:51:36;;;;;;;17.80;8.52;;;;;;;-1.66;89.30;99025.13;4952147;28;20053;-84
2021/12/07 01:59:35;;;;;;;17.75;9.43;;;;;;;-1.60;89.97;99007.56;4965522;28;20042;-82
2021/12/07 02:02:07;;;;;;;15.40;7.82;;;;;;;-1.57;89.99;99007.63;4949432;28;20042;-83
2021/12/07 02:04:33;;;;;;;21.27;11.82;;;;;;;-1.51;89.70;98998.47;4963359;28;20046;-83
2021/12/07 02:07:00;;;;;;;18.50;9.70;;;;;;;-1.50;89.66;98995.16;4927945;28;20125;-81
2021/12/07 02:09:26;;;;;;;16.48;7.82;;;;;;;-1.50;89.36;98985.84;4962942;28;20042;-82
2021/12/07 02:11:59;;;;;;;16.48;8.48;;;;;;;-1.48;89.16;98978.25;4931646;28;20042;-82
2021/12/07 02:14:25;;;;;;;15.77;8.13;;;;;;;-1.47;89.31;98973.19;4964438;28;20397;-82
2021/12/07 02:16:58;;;;;;;16.15;8.77;;;;;;;-1.49;89.24;98969.75;4947702;28;20551;-82
2021/12/07 02:19:25;;;;;;;17.75;8.77;;;;;;;-1.55;88.99;98967.88;4948433;28;20038;-81
2021/12/07 02:21:52;;;;;;;16.25;8.63;;;;;;;-1.56;89.08;98967.81;4963891;28;20505;-81
2021/12/07 02:24:24;;;;;;;15.75;8.05;;;;;;;-1.53;89.55;98962.81;4943395;28;20510;-82
2021/12/07 02:26:50;;;;;;;13.25;7.97;;;;;;;-1.51;89.69;98953.59;4959885;28;20058;-81
2021/12/07 02:29:16;;;;;;;16.75;8.98;;;;;;;-1.51;89.48;98947.59;4968047;28;20073;-81
2021/12/07 02:31:42;;;;;;;;;;;;;;;-1.52;89.38;98946.75;4931430;28;20045;-82
2021/12/07 02:34:09;;;;;;;18.83;8.82;;;;;;;-1.55;89.92;98947.53;4962831;28;19917;-81
2021/12/07 02:36:36;;;;;;;;;;;;;;;-1.48;89.89;98940.09;4946920;28;20073;-81
2021/12/07 02:39:06;;;;;;;18.50;8.50;;;;;;;-1.52;89.69;98941.66;4962721;28;19914;-81
2021/12/07 02:41:32;;;;;;;15.80;8.18;;;;;;;-1.50;89.82;98941.72;4962747;28;20065;-81
2021/12/07 02:43:58;;;;;;;15.73;8.55;;;;;;;-1.49;89.70;98938.38;4947110;28;20033;-83
2021/12/07 02:46:24;;;;;;;13.80;7.78;;;;;;;-1.49;89.90;98935.81;4974381;28;20048;-82
2021/12/07 02:48:53;;;;;;;15.40;7.75;;;;;;;-1.46;89.60;98930.84;4978597;28;20042;-81
2021/12/07 02:51:19;;;;;;;18.88;10.15;;;;;;;-1.45;89.91;98930.00;4956610;28;20474;-82
2021/12/07 02:53:47;;;;;;;14.20;8.13;;;;;;;-1.46;89.73;98930.84;4950166;28;20038;-82
2021/12/07 02:56:13;;;;;;;15.40;8.65;;;;;;;-1.48;89.79;98928.22;4966543;28;20103;-80
2021/12/07 02:58:42;;;;;;;15.25;7.88;;;;;;;-1.50;89.71;98924.78;4981633;28;20423;-82
2021/12/07 03:01:21;;;;;;;12.95;7.60;;;;;;;-1.44;90.24;98924.09;4966268;28;20045;-82
2021/12/07 03:04:08;;;;;;;13.30;7.70;;;;;;;-1.42;89.98;98913.19;4982307;28;20034;-82
2021/12/07 03:07:08;;;;;;;14.88;7.88;;;;;;;-1.39;90.52;98910.72;4984307;28;20413;-82
2021/12/07 03:26:11;;;;;;;15.52;8.00;;;;;;;-1.47;90.15;98896.03;4977416;28;20034;-82
2021/12/07 03:28:45;;;;;;;12.20;7.00;;;;;;;-1.40;90.24;98895.41;4960603;28;20049;-81
2021/12/07 03:31:13;;;;;;;14.48;7.97;;;;;;;-1.35;90.62;98883.69;4943835;28;20068;-81
2021/12/07 03:33:42;;;;;;;12.32;7.10;;;;;;;-1.31;90.36;98888.91;4957558;28;20030;-81
2021/12/07 03:36:09;;;;;;;13.35;8.05;;;;;;;-1.40;89.31;98875.06;4945865;28;20097;-82
2021/12/07 03:38:35;;;;;;;14.35;7.68;;;;;;;-1.43;89.35;98874.94;4967903;28;20072;-82
2021/12/07 03:41:02;;;;;;;15.15;8.02;;;;;;;-1.45;89.80;98874.06;4965089;28;20061;-81
2021/12/07 03:43:28;;;;;;;14.55;7.85;;;;;;;-1.44;89.96;98868.16;4977917;28;20034;-81
2021/12/07 03:45:54;;;;;;;;;;;;;;;-1.43;90.20;98873.28;4980540;28;20038;-81
2021/12/07 03:48:21;;;;;;;;;;;;;;;-1.38;90.39;98874.28;4965541;28;19972;-82
2021/12/07 03:50:47;;;;;;;12.48;6.80;;;;;;;-1.39;90.49;98864.06;4981912;28;19917;-82
2021/12/07 03:53:13;;;;;;;14.27;7.22;;;;;;;-1.33;90.28;98870.22;4964954;28;20065;-82
2021/12/07 03:55:39;;;;;;;13.95;7.22;;;;;;;-1.26;90.22;98868.69;4981455;28;20041;-82
2021/12/07 03:58:05;;;;;;;14.23;7.35;;;;;;;-1.26;90.34;98861.06;4997316;28;20108;-83
2021/12/07 04:00:32;;;;;;;;;;;;;;;-1.21;90.22;98864.59;4980258;28;20448;-81
2021/12/07 04:03:02;;;;;;;13.80;8.13;;;;;;;-1.22;89.58;98859.47;4961555;28;19917;-81
2021/12/07 04:05:28;;;;;;;13.55;7.47;;;;;;;-1.22;90.23;98859.47;4961724;28;20034;-82
2021/12/07 04:07:54;;;;;;;13.32;7.00;;;;;;;-1.24;89.81;98853.47;4945371;28;20090;-81
2021/12/07 04:10:22;;;;;;;14.13;7.38;;;;;;;-1.23;89.50;98847.59;4961236;28;20519;-81
2021/12/07 04:12:48;;;;;;;13.60;7.72;;;;;;;-1.28;89.49;98852.53;4964636;28;20044;-82
2021/12/07 04:15:15;;;;;;;12.55;7.65;;;;;;;-1.24;89.99;98851.78;4961012;28;20069;-82
2021/12/07 04:17:40;;;;;;;11.73;7.07;;;;;;;-1.20;90.46;98845.97;4960635;28;20432;-82
2021/12/07 04:20:08;;;;;;;11.80;6.90;;;;;;;-1.19;90.15;98847.72;4944768;28;20042;-85
2021/12/07 04:22:34;;;;;;;13.02;7.60;;;;;;;-1.18;90.19;98841.81;4941001;28;20053;-83
2021/12/07 04:25:00;;;;;;;13.15;7.57;;;;;;;-1.13;89.86;98839.41;4967258;28;20037;-83
2021/12/07 04:27:26;;;;;;;;;;;;;;;-1.12;89.86;98841.97;4928353;28;20034;-83
2021/12/07 04:29:52;;;;;;;16.88;8.52;;;;;;;-1.17;89.91;98825.72;4982371;28;20653;-83
2021/12/07 04:32:17;;;;;;;14.40;7.70;;;;;;;-1.18;89.63;98825.69;4944981;28;20505;-82
2021/12/07 04:34:44;;;;;;;13.38;7.32;;;;;;;-1.12;89.66;98823.31;4944929;28;20060;-81
2021/12/07 04:37:10;;;;;;;11.27;6.78;;;;;;;-1.12;90.08;98819.06;4976496;28;20046;-83
2021/12/07 04:39:36;;;;;;;13.82;6.72;;;;;;;-1.09;89.81;98820.84;4962300;28;20092;-83
2021/12/07 04:42:02;;;;;;;13.05;7.20;;;;;;;-1.09;89.76;98824.25;4973315;28;20452;-82
2021/12/07 04:44:31;;;;;;;13.40;7.00;;;;;;;-1.08;89.86;98823.44;4945798;28;20054;-82
2021/12/07 04:47:07;;;;;;;12.52;6.90;;;;;;;-1.04;90.40;98826.94;4981574;28;20034;-83
2021/12/07 04:57:47;;;;;;;10.82;5.80;;;;;;;-1.03;89.82;98808.28;4993994;28;20125;-82
2021/12/07 05:00:21;;;;;;;12.25;5.90;;;;;;;-1.06;89.73;98798.88;4962343;28;20046;-84
2021/12/07 05:02:54;;;;;;;9.43;5.45;;;;;;;-0.98;90.60;98804.19;4957591;28;20125;-82
2021/12/07 05:05:22;;;;;;;10.77;6.00;;;;;;;-0.98;90.40;98804.19;4984796;28;20072;-88
2021/12/07 05:08:35;;;;;;;10.15;5.15;;;;;;;-0.99;90.29;98797.38;4982045;28;20050;-82
2021/12/07 05:13:38;;;;;;;9.68;5.38;;;;;;;-0.98;90.39;98811.81;4970414;28;20129;-84
2021/12/07 05:18:51;;;;;;;10.38;5.95;;;;;;;-0.97;90.72;98799.94;5002710;28;20045;-87
2021/12/07 05:24:04;;;;;;;10.18;6.25;;;;;;;-0.97;90.77;98794.88;4951530;28;20030;-83
2021/12/07 05:39:57;;;;;;;20.40;12.95;;;;;;;-0.87;91.25;98785.00;4964087;28;20136;-81
2021/12/07 05:42:24;;;;;;;11.13;6.75;;;;;;;-0.81;91.44;98804.66;4998012;28;20069;-82
2021/12/07 05:44:52;;;;;;;;;;;;;;;-0.78;91.18;98787.78;4981716;28;20448;-83
2021/12/07 05:47:18;;;;;;;9.65;5.97;;;;;;;-0.80;91.14;98778.38;4980771;28;20011;-82
2021/12/07 05:49:44;;;;;;;10.18;6.10;;;;;;;-0.80;91.16;98798.75;4996939;28;20192;-82
2021/12/07 05:52:10;;;;;;;9.90;5.93;;;;;;;-0.74;91.21;98803.97;5014197;28;20044;-82
2021/12/07 05:54:36;;;;;;;11.25;5.25;;;;;;;-0.77;91.34;98774.22;4980853;28;20042;-82
2021/12/07 05:57:01;;;;;;;8.25;5.30;;;;;;;-0.78;91.15;98771.63;4964404;28;20115;-82
2021/12/07 05:59:27;;;;;;;;;;;;;;;-0.71;91.04;98782.84;4980498;28;20042;-83
2021/12/07 06:01:53;;;;;;;8.63;5.20;;;;;;;-0.76;91.38;98770.00;5015824;28;19914;-81
2021/12/07 06:04:19;;;;;;;9.13;5.72;;;;;;;-0.72;91.11;98771.81;4982652;28;20044;-82
2021/12/07 06:06:44;;;;;;;8.57;5.15;;;;;;;-0.68;91.10;98773.59;4981129;28;20112;-83
2021/12/07 06:09:10;;;;;;;9.88;5.15;;;;;;;-0.68;91.17;98772.75;4984140;28;20065;-82
2021/12/07 06:11:36;;;;;;;12.82;7.15;;;;;;;-0.64;90.83;98788.16;4953560;28;20112;-82
2021/12/07 06:14:02;;;;;;;11.02;6.25;;;;;;;-0.66;90.72;98771.94;4968219;28;20073;-82
2021/12/07 06:16:30;;;;;;;12.77;6.03;;;;;;;-0.67;90.67;98770.22;4968137;28;20485;-81
2021/12/07 06:18:57;;;;;;;8.30;5.53;;;;;;;-0.67;90.55;98765.13;4985542;28;20405;-82
2021/12/07 06:21:22;;;;;;;;;;;;;;;-0.60;90.85;98777.19;4985550;28;20091;-83
2021/12/07 06:23:48;;;;;;;10.10;5.63;;;;;;;-0.61;91.05;98767.84;4982609;28;19989;-81
2021/12/07 06:26:14;;;;;;;8.80;5.78;;;;;;;-0.59;91.19;98768.75;4964814;28;20066;-81
2021/12/07 06:28:39;;;;;;;8.65;5.10;;;;;;;-0.64;90.62;98752.50;4963300;28;20497;-82
2021/12/07 06:31:05;;;;;;;7.90;4.88;;;;;;;-0.62;90.91;98760.16;4947574;28;20030;-80
2021/12/07 06:33:31;;;;;;;9.68;5.15;;;;;;;-0.56;91.10;98763.72;4963637;28;20089;-81
2021/12/07 06:35:58;;;;;;;7.95;5.03;;;;;;;-0.54;91.36;98762.09;4959764;28;20105;-80
2021/12/07 06:38:25;;;;;;;8.18;5.45;;;;;;;-0.59;91.38;98753.47;4950772;28;20089;-81
2021/12/07 06:40:51;;;;;;;10.07;5.53;;;;;;;-0.52;91.37;98765.53;4965516;28;20493;-80
2021/12/07 06:43:17;;;;;;;8.98;5.38;;;;;;;-0.53;91.08;98763.81;4963864;28;20045;-81
2021/12/07 06:45:42;;;;;;;8.20;5.32;;;;;;;-0.49;91.45;98743.50;4963090;28;20145;-81
2021/12/07 06:48:08;;;;;;;7.97;5.00;;;;;;;-0.48;91.04;98746.09;4979850;28;20042;-82
2021/12/07 06:50:35;;;;;;;8.63;5.30;;;;;;;-0.44;91.60;98752.13;4950138;28;20094;-81
2021/12/07 06:53:00;;;;;;;9.27;4.90;;;;;;;-0.40;91.45;98748.84;4970803;28;20061;-81
2021/12/07 06:55:27;;;;;;;9.52;5.90;;;;;;;-0.40;91.36;98757.34;4975634;28;20042;-80
2021/12/07 06:57:52;;;;;;;7.43;5.07;;;;;;;-0.43;91.15;98744.50;4979127;28;20045;-81
2021/12/07 07:00:18;;;;;;;7.40;5.05;;;;;;;-0.39;91.25;98745.44;4979420;28;20034;-80
2021/12/07 07:02:44;;;;;;;10.38;4.78;;;;;;;-0.37;91.65;98753.97;4964077;28;20398;-83
2021/12/07 07:05:10;;;;;;;8.73;4.93;;;;;;;-0.36;91.60;98755.72;4963434;28;20386;-81
2021/12/07 07:07:37;;;;;;;10.73;5.80;;;;;;;-0.33;91.53;98763.44;4955558;28;20042;-81
2021/12/07 07:10:03;;;;;;;8.60;5.05;;;;;;;-0.31;91.69;98770.31;4963579;28;20452;-83
2021/12/07 07:12:29;;;;;;;8.98;5.50;;;;;;;-0.30;91.55;98768.63;4997273;28;20065;-80
2021/12/07 07:14:55;;;;;;;13.35;7.03;;;;;;;-0.31;91.45;98755.00;4980966;28;20537;-82
2021/12/07 07:17:20;;;;;;;12.25;6.30;;;;;;;-0.30;91.27;98750.78;4964035;28;20042;-80
2021/12/07 07:19:46;;;;;;;11.10;6.78;;;;;;;-0.31;91.35;98754.16;4976772;28;20045;-81
2021/12/07 07:22:12;;;;;;;9.50;6.40;;;;;;;-0.24;91.59;98758.56;4946474;28;20049;-81
2021/12/07 07:24:38;;;;;;;10.18;6.43;;;;;;;-0.28;91.40;98749.13;4963539;28;20045;-82
2021/12/07 07:27:04;;;;;;;10.40;5.97;;;;;;;-0.24;91.34;98756.00;4966442;28;20042;-82
2021/12/07 07:29:29;;;;;;;;;;;;;;;-0.15;91.75;98760.47;4947564;28;20413;-80
2021/12/07 07:31:55;;;;;;;12.27;6.43;;;;;;;-0.16;91.54;98759.63;4955767;28;20016;-81
2021/12/07 07:34:21;;;;;;;9.27;6.25;;;;;;;-0.21;91.61;98758.66;4960980;28;20113;-81
2021/12/07 07:36:47;;;;;;;10.93;7.00;;;;;;;-0.19;91.63;98763.78;4944547;28;20041;-83
2021/12/07 07:39:13;;;;;;;14.40;9.25;;;;;;;-0.15;91.33;98761.34;4957422;28;20553;-82
2021/12/07 07:41:39;;;;;;;10.77;7.43;;;;;;;-0.13;91.75;98758.84;4979101;28;20184;-82
2021/12/07 07:44:05;;;;;;;10.45;6.47;;;;;;;-0.15;91.76;98765.56;4979816;28;20112;-82
2021/12/07 07:46:41;;;;;;;8.27;6.05;;;;;;;-0.16;91.49;98761.31;4978294;28;20085;-82
2021/12/07 07:49:07;;;;;;;10.82;6.55;;;;;;;-0.14;91.82;98759.63;4963654;28;20045;-82
2021/12/07 07:51:33;;;;;;;9.63;5.18;;;;;;;-0.13;91.13;98761.38;4978429;28;20038;-82
2021/12/07 07:53:59;;;;;;;10.40;6.15;;;;;;;-0.11;91.73;98752.06;4978775;28;20092;-83
2021/12/07 07:56:26;;;;;;;8.43;5.30;;;;;;;-0.11;92.00;98754.63;4962654;28;20393;-82
2021/12/07 07:58:53;;;;;;;9.05;5.70;;;;;;;-0.12;92.01;98756.31;4962530;28;20046;-82
2021/12/07 08:01:19;;;;;;;9.35;6.10;;;;;;;-0.11;92.10;98752.06;4962429;28;20042;-82
2021/12/07 08:03:44;;;;;;;10.15;6.15;;;;;;;-0.10;92.01;98759.75;4978856;28;20041;-82
2021/12/07 08:06:10;;;;;;;9.25;6.78;;;;;;;-0.09;92.23;98764.03;4978622;28;20038;-81
2021/12/07 08:08:36;;;;;;;11.07;6.80;;;;;;;-0.09;92.31;98758.06;4962453;28;20141;-81
2021/12/07 08:11:04;;;;;;;10.40;7.25;;;;;;;-0.06;92.50;98747.94;4981268;28;20046;-81
2021/12/07 08:13:31;;;;;;;12.35;6.90;;;;;;;-0.04;92.42;98752.28;4963166;28;20172;-82
2021/12/07 08:15:57;;;;;;;11.63;6.82;;;;;;;-0.09;92.33;98752.97;4996611;28;20042;-81
2021/12/07 08:18:23;;;;;;;9.77;6.40;;;;;;;-0.01;92.86;98762.50;4962608;28;20045;-81
2021/12/07 08:20:49;;;;;;;;;;;;;;;-0.01;92.63;98767.63;4963255;28;20554;-81
2021/12/07 08:23:15;;;;;;;9.13;5.80;;;;;;;-0.06;93.01;98760.69;4942836;28;20002;-81
2021/12/07 08:25:45;;;;;;;8.40;6.00;;;;;;;-0.03;93.00;98765.88;4970070;28;20068;-82
2021/12/07 08:28:13;;;;;;;9.18;6.07;;;;;;;0.01;92.72;98767.66;4970846;28;20153;-81
2021/12/07 08:30:40;;;;;;;9.23;5.82;;;;;;;0.01;93.03;98764.25;4990177;28;20038;-82
2021/12/07 08:33:06;;;;;;;7.95;5.43;;;;;;;0.02;92.83;98763.44;4940483;28;20046;-81
2021/12/07 08:35:31;;;;;;;8.68;5.68;;;;;;;0.05;92.91;98749.06;4970271;28;20371;-81
2021/12/07 08:37:57;;;;;;;8.00;5.32;;;;;;;0.03;93.40;98729.44;4961759;28;20081;-82
2021/12/07 08:40:24;;;;;;;10.40;5.18;;;;;;;0.07;93.46;98744.00;4944883;28;20061;-82
2021/12/07 08:42:50;;;;;;;9.43;6.50;;;;;;;0.10;93.36;98741.53;4944193;28;20497;-81
2021/12/07 08:45:16;;;;;;;12.52;9.00;;;;;;;0.09;93.44;98740.66;4995295;28;20181;-80
2021/12/07 08:47:42;;;;;;;8.70;6.07;;;;;;;0.10;93.34;98726.22;4944773;28;20177;-82
2021/12/07 08:50:11;;;;;;;10.35;5.45;;;;;;;0.11;93.20;98733.91;4963271;28;20532;-81
2021/12/07 08:52:36;;;;;;;7.00;4.88;;;;;;;0.15;93.45;98733.16;4956063;28;20053;-85
2021/12/07 09:00:28;;;;;;;8.02;5.00;;;;;;;0.22;93.16;98723.94;4968344;28;20077;-85
2021/12/07 09:02:54;;;;;;;8.70;5.55;;;;;;;0.22;93.26;98718.81;4945968;28;20424;-81
2021/12/07 09:05:20;;;;;;;7.30;4.88;;;;;;;0.27;93.66;98718.91;4931845;28;20058;-82
2021/12/07 09:07:46;;;;;;;9.77;6.10;;;;;;;0.35;93.43;98733.56;4942140;28;20037;-81
2021/12/07 09:10:11;;;;;;;8.25;5.50;;;;;;;0.33;93.25;98732.69;4956576;28;20046;-80
2021/12/07 09:12:37;;;;;;;7.70;4.93;;;;;;;0.32;93.58;98718.22;4961525;28;20058;-82
2021/12/07 09:15:03;;;;;;;7.55;5.30;;;;;;;0.33;93.26;98725.03;4961000;28;20042;-82
2021/12/07 09:17:29;;;;;;;10.13;5.43;;;;;;;0.33;93.21;98717.38;4972689;28;20027;-84
2021/12/07 09:19:55;;;;;;;7.40;4.70;;;;;;;0.40;93.38;98723.47;4942194;28;20038;-81
2021/12/07 09:22:21;;;;;;;7.95;4.90;;;;;;;0.43;93.02;98726.09;4958200;28;20061;-85
2021/12/07 09:24:47;;;;;;;7.65;4.78;;;;;;;0.46;93.37;98736.38;4951996;28;20076;-82
2021/12/07 09:27:12;;;;;;;7.93;4.78;;;;;;;0.48;92.89;98730.44;4977607;28;20390;-82
2021/12/07 09:29:38;;;;;;;7.63;4.78;;;;;;;0.46;92.88;98727.03;4961651;28;20070;-82
2021/12/07 09:32:05;;;;;;;7.55;4.82;;;;;;;0.48;92.88;98733.00;4961953;28;20049;-81
2021/12/07 09:34:31;;;;;;;7.70;5.35;;;;;;;0.45;93.00;98719.31;4995458;28;20085;-82
2021/12/07 09:36:58;;;;;;;8.15;4.97;;;;;;;0.49;93.31;98729.63;4976966;28;20496;-84
2021/12/07 09:39:24;;;;;;;8.57;4.85;;;;;;;0.49;93.31;98727.06;4944627;28;20075;-81
2021/12/07 09:41:50;;;;;;;8.38;5.50;;;;;;;0.47;93.13;98707.47;4944112;28;20509;-82
2021/12/07 09:44:16;;;;;;;10.65;6.95;;;;;;;0.45;93.53;98720.16;4946492;28;20078;-82
2021/12/07 09:46:42;;;;;;;9.25;5.90;;;;;;;0.46;93.38;98721.06;4956707;28;20037;-84
2021/12/07 09:49:08;;;;;;;;;;;;;;;0.50;93.66;98722.81;4964990;28;20055;-82
2021/12/07 09:51:33;;;;;;;8.50;4.70;;;;;;;0.49;93.88;98721.09;4997895;28;20289;-82
2021/12/07 09:53:59;;;;;;;7.43;5.03;;;;;;;0.47;93.67;98717.66;4949777;28;20034;-87
2021/12/07 09:56:25;;;;;;;6.57;4.22;;;;;;;0.41;93.69;98689.47;4965792;28;20036;-87
2021/12/07 09:58:53;;;;;;;7.55;4.38;;;;;;;0.54;93.97;98699.09;4949591;28;20516;-81
2021/12/07 10:01:18;;;;;;;6.47;4.45;;;;;;;0.54;93.62;98693.13;4965439;28;20046;-82
2021/12/07 10:03:44;;;;;;;9.52;5.13;;;;;;;0.57;93.89;98705.97;4964257;28;20041;-82
2021/12/07 10:06:10;;;;;;;9.75;5.57;;;;;;;0.53;93.46;98704.16;4948565;28;20050;-81
2021/12/07 10:08:36;;;;;;;;;;;;;;;0.59;93.61;98711.94;4965081;28;20081;-82
2021/12/07 10:11:02;;;;;;;6.13;4.18;;;;;;;0.56;93.43;98707.66;4980961;28;19918;-83
2021/12/07 10:13:30;;;;;;;11.68;6.93;;;;;;;0.55;93.41;98697.41;4964660;28;20042;-82
2021/12/07 10:15:58;;;;;;;11.93;7.28;;;;;;;0.62;93.67;98696.69;4948519;28;20035;-82
2021/12/07 10:18:26;;;;;;;9.70;6.13;;;;;;;0.56;93.81;98696.59;4964274;28;20034;-83
2021/12/07 10:20:55;;;;;;;11.35;6.60;;;;;;;0.63;93.37;98717.13;4980963;28;20030;-83
2021/12/07 10:23:25;;;;;;;7.20;5.30;;;;;;;0.60;93.43;98719.66;4963182;28;20038;-86
2021/12/07 10:26:15;;;;;;;11.98;6.63;;;;;;;0.63;93.65;98718.84;4957578;28;20046;-82
2021/12/07 10:28:42;;;;;;;11.25;6.43;;;;;;;0.63;93.22;98718.84;4970892;28;20530;-82
2021/12/07 10:31:28;;;;;;;14.50;7.57;;;;;;;0.60;93.49;98713.69;4957311;28;20034;-81
2021/12/07 10:33:58;;;;;;;10.48;6.72;;;;;;;0.62;93.57;98707.75;4944116;28;20506;-81
2021/12/07 10:36:25;;;;;;;11.35;6.47;;;;;;;0.68;93.92;98722.34;4945115;28;20065;-82
2021/12/07 10:39:02;;;;;;;12.18;6.50;;;;;;;0.66;93.86;98711.25;4956208;28;20034;-82
2021/12/07 10:41:32;;;;;;;10.45;6.47;;;;;;;0.62;93.89;98701.81;4919134;28;20046;-84
2021/12/07 10:44:05;;;;;;;14.57;8.05;;;;;;;0.61;93.86;98700.94;4928494;28;20046;-82
2021/12/07 10:46:41;;;;;;;11.63;7.05;;;;;;;0.64;93.83;98708.69;4964334;28;20472;-84
2021/12/07 10:49:29;;;;;;;14.60;8.10;;;;;;;0.66;93.63;98719.75;4961461;28;20050;-81
2021/12/07 10:51:59;;;;;;;13.85;7.78;;;;;;;0.68;94.26;98717.22;4951886;28;20053;-85
2021/12/07 10:54:26;;;;;;;13.68;8.18;;;;;;;0.68;93.95;98714.69;4963152;28;20544;-82
2021/12/07 10:56:52;;;;;;;14.27;8.10;;;;;;;0.71;94.47;98722.41;4928345;28;20039;-82
2021/12/07 10:59:18;;;;;;;12.88;6.93;;;;;;;0.70;94.28;98720.69;4959840;28;20047;-85
2021/12/07 11:01:46;;;;;;;11.60;6.95;;;;;;;0.69;94.16;98713.88;4943844;28;20038;-83
2021/12/07 11:04:45;;;;;;;8.45;5.47;;;;;;;0.75;94.06;98724.19;4943979;28;20077;-80
2021/12/07 11:07:21;;;;;;;8.77;5.88;;;;;;;0.73;94.01;98726.72;4939205;28;20100;-83
2021/12/07 11:10:21;;;;;;;11.45;5.97;;;;;;;0.70;94.12;98721.56;4996646;28;20050;-81
2021/12/07 11:13:13;;;;;;;8.93;5.80;;;;;;;0.71;94.03;98724.97;4973161;28;20453;-83
2021/12/07 11:16:03;;;;;;;13.45;7.32;;;;;;;0.68;94.13;98722.34;4963009;28;20043;-83
2021/12/07 11:18:32;;;;;;;11.63;7.85;;;;;;;0.71;94.45;98730.94;4962884;28;20360;-82
2021/12/07 11:21:02;;;;;;;13.45;7.30;;;;;;;0.68;94.05;98727.44;4960226;28;20395;-83
2021/12/07 11:23:34;;;;;;;12.55;7.70;;;;;;;0.70;94.11;98736.00;4971293;28;20069;-83
2021/12/07 11:31:36;;;;;;;8.82;5.90;;;;;;;0.71;94.03;98733.47;4964592;28;20043;-81
2021/12/07 11:34:14;;;;;;;10.20;5.65;;;;;;;0.72;94.17;98724.13;4954614;28;20030;-82
2021/12/07 11:36:45;;;;;;;9.30;5.53;;;;;;;0.74;94.43;98719.94;4976797;28;20092;-82
2021/12/07 11:39:22;;;;;;;9.18;5.13;;;;;;;0.75;94.60;98732.72;4967349;28;20523;-81
2021/12/07 11:41:49;;;;;;;9.30;5.47;;;;;;;0.78;94.44;98737.03;4962795;28;20534;-80
2021/12/07 11:44:15;;;;;;;8.23;5.13;;;;;;;0.70;94.57;98731.75;4951169;28;20034;-83
2021/12/07 11:46:46;;;;;;;9.15;5.40;;;;;;;0.74;94.32;98733.56;4933384;28;20472;-82
2021/12/07 11:49:19;;;;;;;6.93;4.45;;;;;;;0.77;94.27;98735.28;4973551;28;20043;-82
2021/12/07 11:51:47;;;;;;;8.23;5.40;;;;;;;0.75;94.19;98742.06;4954676;28;20042;-83
2021/12/07 11:54:13;;;;;;;8.68;5.07;;;;;;;0.73;94.44;98733.50;4946290;28;20026;-85
2021/12/07 11:56:39;;;;;;;28.48;19.85;;;;;;;0.70;94.03;98707.94;4962569;28;20133;-82
2021/12/07 11:59:05;;;;;;;9.82;6.30;;;;;;;0.72;93.90;98726.69;4962234;28;20038;-83
2021/12/07 12:01:31;;;;;;;13.02;7.03;;;;;;;0.80;93.86;98737.91;4961951;28;20161;-82
2021/12/07 12:03:56;;;;;;;12.93;7.82;;;;;;;0.75;94.09;98732.72;4977683;28;20058;-82
2021/12/07 12:06:22;;;;;;;15.10;7.57;;;;;;;0.73;94.13;98725.84;4944840;28;20049;-85
2021/12/07 12:08:49;;;;;;;10.43;6.88;;;;;;;0.77;94.29;98731.03;4946011;28;20464;-81
2021/12/07 12:11:19;;;;;;;10.65;6.25;;;;;;;0.79;94.23;98741.28;4977887;28;20057;-86
2021/12/07 12:14:15;;;;;;;8.40;5.07;;;;;;;0.76;94.42;98751.44;4977356;28;20066;-86
2021/12/07 12:16:46;;;;;;;8.70;4.78;;;;;;;0.72;94.04;98739.44;4949415;28;20133;-84
2021/12/07 12:19:46;;;;;;;8.55;5.00;;;;;;;0.76;93.89;98754.84;4961966;28;20042;-87
2021/12/07 12:22:31;;;;;;;7.22;4.70;;;;;;;0.77;94.38;98753.16;4951135;28;20462;-81
2021/12/07 12:24:59;;;;;;;7.68;5.32;;;;;;;0.73;94.44;98757.34;4932171;28;20066;-85
2021/12/07 12:27:33;;;;;;;8.63;5.20;;;;;;;0.75;94.40;98765.91;4929848;28;20030;-84
2021/12/07 12:30:32;;;;;;;9.48;6.22;;;;;;;0.71;94.03;98759.00;4969883;28;20039;-81
2021/12/07 12:33:08;;;;;;;9.05;5.63;;;;;;;0.75;94.09;98770.16;4948298;28;20137;-86
2021/12/07 12:35:41;;;;;;;11.18;6.85;;;;;;;0.72;93.79;98778.59;4996199;28;20038;-82
2021/12/07 12:38:24;;;;;;;12.27;7.38;;;;;;;0.71;94.28;98774.31;4961322;28;20042;-84
2021/12/07 12:41:09;;;;;;;12.13;7.15;;;;;;;0.72;94.18;98772.63;4971570;28;20054;-82
2021/12/07 12:43:41;;;;;;;10.77;7.03;;;;;;;0.71;94.06;98765.81;4939920;28;20042;-81
2021/12/07 12:46:08;;;;;;;11.60;6.47;;;;;;;0.72;94.53;98773.47;4958822;28;20035;-86
2021/12/07 12:48:34;;;;;;;10.80;7.10;;;;;;;0.71;94.24;98773.47;4944499;28;20036;-85
2021/12/07 12:51:00;;;;;;;10.70;6.70;;;;;;;0.67;94.21;98764.88;4945838;28;20125;-84
2021/12/07 12:53:34;;;;;;;15.60;6.65;;;;;;;0.65;94.07;98764.00;4929482;28;20065;-85
2021/12/07 12:56:00;;;;;;;10.85;6.70;;;;;;;0.74;94.61;98778.63;4946360;28;20042;-84
2021/12/07 12:58:29;;;;;;;13.40;6.22;;;;;;;0.73;94.33;98776.88;4976979;28;20045;-85
2021/12/07 13:01:07;;;;;;;9.07;5.45;;;;;;;0.73;94.60;98776.88;4980995;28;20046;-82
2021/12/07 13:03:49;;;;;;;9.43;5.80;;;;;;;0.74;94.50;98771.84;4961877;28;20034;-83
2021/12/07 13:06:41;;;;;;;8.18;5.03;;;;;;;0.73;94.31;98776.88;4960830;28;20568;-86
2021/12/07 13:09:19;;;;;;;10.07;6.05;;;;;;;0.69;94.68;98773.44;4947627;28;20214;-86
2021/12/07 13:11:53;;;;;;;11.00;6.30;;;;;;;0.70;94.35;98779.41;4993632;28;20149;-84
2021/12/07 13:14:19;;;;;;;14.05;7.53;;;;;;;0.72;94.45;98780.28;4993524;28;20134;-86
2021/12/07 13:17:04;;;;;;;11.35;6.45;;;;;;;0.66;94.52;98772.50;4960275;28;20140;-83
2021/12/07 13:19:30;;;;;;;10.63;5.72;;;;;;;0.64;94.63;98779.25;4976083;28;20378;-85